createdAt,value
2023-05-10T00:00:41.214Z,5.65
2023-05-10T00:03:08.200Z,4.38
2023-05-10T00:05:35.071Z,4.10
2023-05-10T00:08:01.896Z,3.63
2023-05-10T00:10:28.652Z,3.95
2023-05-10T00:12:55.681Z,3.60
2023-05-10T00:15:22.659Z,3.65
2023-05-10T00:17:49.702Z,3.55
2023-05-10T00:20:17.021Z,3.38
2023-05-10T00:22:44.016Z,3.28
2023-05-10T00:25:11.645Z,3.35
2023-05-10T00:27:38.444Z,3.53
2023-05-10T00:30:06.203Z,3.30
2023-05-10T00:32:33.094Z,3.05
2023-05-10T00:34:59.976Z,2.75
2023-05-10T00:37:27.645Z,2.95
2023-05-10T00:39:55.354Z,3.28
2023-05-10T00:42:23.310Z,3.10
2023-05-10T00:44:52.377Z,3.15
2023-05-10T00:47:19.417Z,3.40
2023-05-10T00:49:47.073Z,3.03
2023-05-10T00:52:14.386Z,3.38
2023-05-10T00:54:41.800Z,3.25
2023-05-10T00:57:08.959Z,3.20
2023-05-10T00:59:36.052Z,3.08
2023-05-10T01:02:03.283Z,2.92
2023-05-10T01:04:31.659Z,3.20
2023-05-10T01:06:58.833Z,3.63
2023-05-10T01:09:27.454Z,3.00
2023-05-10T01:11:55.562Z,3.08
2023-05-10T01:14:23.196Z,2.78
2023-05-10T01:16:51.222Z,3.20
2023-05-10T01:19:23.409Z,3.53
2023-05-10T01:24:36.175Z,3.05
2023-05-10T01:27:18.285Z,2.95
2023-05-10T01:30:09.129Z,3.00
2023-05-10T01:33:07.208Z,2.97
2023-05-10T01:35:55.955Z,3.17
2023-05-10T01:38:47.231Z,3.13
2023-05-10T01:41:29.447Z,3.67
2023-05-10T01:44:04.696Z,4.53
2023-05-10T01:46:38.536Z,4.38
2023-05-10T01:49:13.098Z,4.50
2023-05-10T01:51:49.970Z,4.53
2023-05-10T01:54:20.431Z,5.22
2023-05-10T01:56:56.220Z,4.68
2023-05-10T01:59:25.092Z,5.05
2023-05-10T02:01:55.327Z,4.72
2023-05-10T02:04:24.719Z,5.47
2023-05-10T02:06:54.004Z,5.30
2023-05-10T02:09:22.848Z,5.82
2023-05-10T02:11:51.459Z,5.53
2023-05-10T02:14:20.042Z,5.82
2023-05-10T02:16:48.396Z,5.82
2023-05-10T02:19:16.591Z,5.95
2023-05-10T02:21:45.612Z,6.10
2023-05-10T02:24:12.888Z,6.20
2023-05-10T02:26:41.375Z,6.97
2023-05-10T02:29:09.650Z,7.72
2023-05-10T02:31:37.094Z,7.13
2023-05-10T02:34:07.017Z,7.72
2023-05-10T02:36:34.505Z,7.82
2023-05-10T02:39:03.013Z,7.30
2023-05-10T02:41:33.552Z,7.00
2023-05-10T02:44:03.990Z,6.82
2023-05-10T02:46:31.653Z,6.53
2023-05-10T02:48:58.868Z,5.22
2023-05-10T02:51:32.687Z,5.28
2023-05-10T02:54:05.067Z,5.55
2023-05-10T02:56:36.845Z,5.30
2023-05-10T02:59:03.691Z,3.92
2023-05-10T03:01:30.655Z,3.55
2023-05-10T03:03:58.740Z,3.47
2023-05-10T03:06:25.835Z,4.32
2023-05-10T03:08:52.631Z,4.70
2023-05-10T03:11:48.521Z,4.45
2023-05-10T03:14:54.028Z,4.43
2023-05-10T03:17:30.764Z,4.57
2023-05-10T03:20:04.135Z,4.65
2023-05-10T03:22:37.850Z,4.20
2023-05-10T03:25:07.668Z,4.60
2023-05-10T03:27:37.589Z,3.90
2023-05-10T03:30:08.245Z,57.92
2023-05-10T03:32:35.915Z,96.75
2023-05-10T03:35:10.846Z,24.65
2023-05-10T03:37:38.177Z,12.05
2023-05-10T03:40:06.754Z,9.10
2023-05-10T03:42:36.145Z,5.40
2023-05-10T03:45:03.124Z,10.88
2023-05-10T03:47:30.909Z,7.78
2023-05-10T03:49:58.833Z,4.28
2023-05-10T03:52:26.370Z,4.07
2023-05-10T03:54:53.322Z,2.90
2023-05-10T03:57:20.307Z,3.63
2023-05-10T03:59:47.356Z,3.47
2023-05-10T04:02:14.262Z,4.35
2023-05-10T04:04:41.248Z,4.30
2023-05-10T04:07:08.188Z,4.28
2023-05-10T04:09:35.042Z,3.80
2023-05-10T04:12:03.448Z,3.85
2023-05-10T04:14:30.343Z,3.30
2023-05-10T04:16:57.181Z,4.40
2023-05-10T04:19:24.392Z,4.30
2023-05-10T04:21:51.266Z,5.35
2023-05-10T04:24:18.137Z,3.20
2023-05-10T04:26:44.976Z,3.00
2023-05-10T04:29:11.802Z,3.63
2023-05-10T04:31:38.909Z,3.90
2023-05-10T04:34:06.141Z,3.10
2023-05-10T04:36:34.931Z,4.28
2023-05-10T04:39:01.981Z,3.58
2023-05-10T04:41:30.409Z,3.67
2023-05-10T04:43:57.649Z,4.10
2023-05-10T04:46:24.548Z,6.05
2023-05-10T04:48:51.486Z,4.10
2023-05-10T04:51:18.322Z,4.82
2023-05-10T04:53:51.158Z,2.78
2023-05-10T04:56:24.564Z,3.78
2023-05-10T04:58:51.359Z,4.22
2023-05-10T05:01:18.429Z,3.72
2023-05-10T05:03:45.365Z,5.20
2023-05-10T05:06:12.202Z,3.13
2023-05-10T05:08:39.063Z,3.42
2023-05-10T05:11:05.994Z,3.75
2023-05-10T05:13:33.147Z,3.58
2023-05-10T05:16:02.403Z,3.25
2023-05-10T05:18:29.579Z,3.22
2023-05-10T05:20:56.458Z,3.05
2023-05-10T05:23:25.873Z,2.92
2023-05-10T05:25:53.734Z,2.92
2023-05-10T05:28:21.488Z,2.78
2023-05-10T05:30:48.414Z,3.28
2023-05-10T05:33:16.506Z,3.95
2023-05-10T05:35:48.603Z,6.28
2023-05-10T05:40:42.330Z,3.58
2023-05-10T05:43:09.374Z,3.10
2023-05-10T05:45:36.205Z,3.55
2023-05-10T05:48:03.144Z,3.10
2023-05-10T05:50:30.016Z,3.13
2023-05-10T05:52:57.614Z,3.80
2023-05-10T05:55:25.390Z,3.60
2023-05-10T05:57:52.538Z,3.13
2023-05-10T06:00:19.494Z,2.30
2023-05-10T06:02:46.471Z,2.28
2023-05-10T06:05:15.273Z,2.22
2023-05-10T06:07:43.369Z,2.70
2023-05-10T06:10:10.845Z,2.22
2023-05-10T06:12:37.784Z,2.28
2023-05-10T06:15:05.062Z,2.20
2023-05-10T06:17:32.075Z,2.25
2023-05-10T06:19:58.875Z,2.20
2023-05-10T06:22:25.989Z,2.60
2023-05-10T06:24:52.825Z,2.30
2023-05-10T06:27:19.693Z,2.50
2023-05-10T06:29:46.566Z,2.45
2023-05-10T06:32:13.442Z,2.17
2023-05-10T06:34:40.535Z,2.20
2023-05-10T06:37:07.384Z,2.13
2023-05-10T06:39:34.279Z,2.50
2023-05-10T06:42:02.806Z,2.00
2023-05-10T06:44:33.042Z,2.17
2023-05-10T06:47:00.056Z,2.40
2023-05-10T06:49:26.971Z,2.50
2023-05-10T06:51:53.781Z,2.00
2023-05-10T06:54:20.640Z,2.05
2023-05-10T06:56:47.506Z,2.28
2023-05-10T06:59:14.801Z,2.40
2023-05-10T07:01:41.847Z,2.10
2023-05-10T07:04:08.931Z,2.45
2023-05-10T07:06:35.816Z,2.05
2023-05-10T07:09:02.962Z,3.22
2023-05-10T07:11:29.828Z,2.90
2023-05-10T07:13:56.673Z,2.40
2023-05-10T07:16:23.657Z,6.80
2023-05-10T07:18:51.711Z,6.43
2023-05-10T07:21:18.713Z,3.63
2023-05-10T07:23:45.679Z,2.20
2023-05-10T07:26:12.754Z,1.80
2023-05-10T07:28:40.157Z,1.85
2023-05-10T07:31:07.086Z,1.90
2023-05-10T07:33:34.049Z,1.80
2023-05-10T07:36:00.898Z,1.98
2023-05-10T07:38:27.906Z,2.08
2023-05-10T07:40:54.777Z,1.90
2023-05-10T07:43:21.615Z,2.00
2023-05-10T07:45:48.484Z,2.00
2023-05-10T07:48:15.368Z,2.22
2023-05-10T07:50:42.249Z,2.05
2023-05-10T07:53:09.107Z,1.70
2023-05-10T07:55:36.479Z,1.83
2023-05-10T07:58:03.759Z,1.80
2023-05-10T08:00:30.797Z,2.80
2023-05-10T08:02:57.846Z,2.00
2023-05-10T08:05:24.841Z,2.20
2023-05-10T08:07:51.736Z,2.03
2023-05-10T08:10:18.637Z,1.70
2023-05-10T08:12:45.716Z,1.80
2023-05-10T08:15:12.662Z,1.70
2023-05-10T08:17:39.518Z,1.58
2023-05-10T08:20:07.063Z,1.75
2023-05-10T08:22:33.857Z,1.60
2023-05-10T08:25:00.774Z,1.90
2023-05-10T08:27:27.649Z,1.83
2023-05-10T08:29:54.478Z,2.10
2023-05-10T08:32:21.353Z,1.60
2023-05-10T08:34:48.218Z,1.65
2023-05-10T08:37:15.230Z,1.70
2023-05-10T08:39:42.161Z,1.70
2023-05-10T08:42:10.381Z,1.70
2023-05-10T08:44:38.051Z,1.80
2023-05-10T08:47:10.306Z,2.00
2023-05-10T08:49:38.684Z,1.88
2023-05-10T08:52:07.061Z,1.70
2023-05-10T08:54:35.022Z,1.88
2023-05-10T08:57:02.110Z,2.67
2023-05-10T08:59:29.629Z,1.80
2023-05-10T09:01:59.489Z,1.83
2023-05-10T09:04:27.173Z,2.60
2023-05-10T09:06:54.548Z,3.35
2023-05-10T09:09:22.829Z,2.00
2023-05-10T09:11:50.181Z,1.50
2023-05-10T09:14:18.450Z,1.52
2023-05-10T09:16:45.885Z,1.92
2023-05-10T09:19:12.887Z,1.80
2023-05-10T09:21:39.757Z,1.55
2023-05-10T09:24:07.881Z,1.40
2023-05-10T09:26:36.674Z,1.60
2023-05-10T09:29:04.281Z,1.70
2023-05-10T09:31:57.489Z,1.55
2023-05-10T09:34:32.163Z,1.60
2023-05-10T09:37:07.523Z,1.80
2023-05-10T09:39:36.223Z,2.30
2023-05-10T09:42:06.026Z,1.92
2023-05-10T09:44:34.416Z,2.00
2023-05-10T09:47:04.500Z,2.17
2023-05-10T09:49:31.786Z,1.90
2023-05-10T09:52:09.086Z,2.17
2023-05-10T09:54:37.135Z,1.73
2023-05-10T09:57:04.425Z,2.10
2023-05-10T09:59:34.159Z,1.75
2023-05-10T10:02:01.612Z,1.85
2023-05-10T10:04:30.016Z,2.30
2023-05-10T10:07:05.239Z,2.00
2023-05-10T10:09:33.818Z,2.20
2023-05-10T10:12:05.681Z,1.75
2023-05-10T10:14:32.811Z,1.80
2023-05-10T10:19:36.887Z,1.88
2023-05-10T10:22:04.334Z,1.60
2023-05-10T10:24:31.272Z,1.60
2023-05-10T10:27:05.703Z,1.80
2023-05-10T10:29:53.758Z,1.73
2023-05-10T10:32:34.539Z,1.70
2023-05-10T10:35:01.788Z,2.08
2023-05-10T10:37:51.260Z,1.90
2023-05-10T10:40:36.168Z,1.70
2023-05-10T10:43:22.813Z,1.50
2023-05-10T10:46:15.515Z,1.60
2023-05-10T10:48:48.063Z,1.60
2023-05-10T10:51:15.550Z,1.90
2023-05-10T10:53:42.562Z,1.85
2023-05-10T10:56:16.241Z,2.35
2023-05-10T10:58:52.241Z,1.60
2023-05-10T11:01:19.958Z,2.00
2023-05-10T11:04:01.880Z,1.73
2023-05-10T11:06:33.512Z,1.60
2023-05-10T11:09:10.309Z,1.77
2023-05-10T11:11:49.305Z,1.90
2023-05-10T11:14:22.442Z,1.70
2023-05-10T11:16:49.446Z,1.98
2023-05-10T11:19:17.935Z,1.90
2023-05-10T11:21:52.924Z,2.10
2023-05-10T11:24:24.016Z,2.10
2023-05-10T11:26:54.994Z,2.00
2023-05-10T11:29:21.941Z,1.92
2023-05-10T11:31:50.075Z,1.90
2023-05-10T11:34:31.472Z,2.00
2023-05-10T11:36:59.090Z,2.00
2023-05-10T11:39:30.693Z,2.08
2023-05-10T11:41:58.650Z,2.28
2023-05-10T11:44:31.719Z,1.98
2023-05-10T11:47:02.727Z,2.17
2023-05-10T11:49:30.003Z,2.30
2023-05-10T11:52:14.921Z,2.13
2023-05-10T11:54:55.888Z,2.20
2023-05-10T11:57:28.016Z,1.88
2023-05-10T11:59:56.256Z,2.22
2023-05-10T12:02:23.577Z,1.98
2023-05-10T12:04:51.934Z,1.83
2023-05-10T12:07:18.963Z,2.10
2023-05-10T12:09:46.239Z,1.70
2023-05-10T12:12:19.269Z,1.85
2023-05-10T12:14:51.405Z,1.80
2023-05-10T12:17:18.236Z,2.00
2023-05-10T12:19:45.044Z,2.03
2023-05-10T12:22:11.952Z,1.80
2023-05-10T12:24:41.600Z,1.70
2023-05-10T12:27:11.317Z,2.00
2023-05-10T12:29:44.867Z,2.00
2023-05-10T12:32:11.788Z,1.90
2023-05-10T12:34:39.692Z,2.03
2023-05-10T12:37:06.609Z,1.70
2023-05-10T12:39:44.421Z,1.80
2023-05-10T12:42:11.705Z,1.60
2023-05-10T12:44:38.572Z,1.85
2023-05-10T12:47:05.482Z,1.70
2023-05-10T12:49:32.643Z,1.60
2023-05-10T12:51:59.593Z,1.73
2023-05-10T12:54:26.324Z,1.73
2023-05-10T12:56:53.156Z,1.75
2023-05-10T12:59:20.007Z,2.05
2023-05-10T13:01:46.837Z,2.03
2023-05-10T13:04:13.874Z,2.00
2023-05-10T13:06:40.770Z,2.03
2023-05-10T13:09:08.062Z,1.80
2023-05-10T13:11:34.953Z,1.70
2023-05-10T13:14:01.816Z,2.00
2023-05-10T13:16:28.656Z,1.70
2023-05-10T13:18:55.550Z,1.92
2023-05-10T13:21:22.379Z,1.80
2023-05-10T13:23:49.259Z,2.05
2023-05-10T13:26:16.134Z,1.90
2023-05-10T13:28:43.034Z,1.92
2023-05-10T13:31:10.013Z,2.05
2023-05-10T13:33:36.881Z,1.90
2023-05-10T13:36:03.905Z,2.20
2023-05-10T13:38:30.811Z,2.28
2023-05-10T13:40:57.648Z,2.10
2023-05-10T13:43:25.111Z,2.40
2023-05-10T13:45:52.010Z,2.00
2023-05-10T13:48:18.811Z,1.88
2023-05-10T13:50:45.994Z,1.90
2023-05-10T13:53:13.774Z,2.00
2023-05-10T13:56:36.912Z,2.17
2023-05-10T13:59:04.969Z,2.10
2023-05-10T14:01:32.218Z,2.50
2023-05-10T14:03:59.575Z,2.10
2023-05-10T14:06:26.502Z,2.05
2023-05-10T14:08:53.421Z,2.50
2023-05-10T14:11:22.591Z,2.50
2023-05-10T14:13:50.697Z,2.30
2023-05-10T14:16:17.661Z,3.35
2023-05-10T14:18:44.508Z,2.30
2023-05-10T14:21:11.371Z,2.83
2023-05-10T14:23:38.250Z,2.08
2023-05-10T14:26:05.339Z,2.40
2023-05-10T14:28:32.491Z,2.40
2023-05-10T14:31:00.101Z,2.20
2023-05-10T14:33:27.021Z,2.17
2023-05-10T14:35:55.973Z,2.05
2023-05-10T14:38:22.744Z,2.13
2023-05-10T14:40:49.575Z,2.10
2023-05-10T14:43:16.358Z,2.72
2023-05-10T14:45:43.191Z,2.30
2023-05-10T14:48:13.285Z,2.38
2023-05-10T14:50:40.628Z,2.08
2023-05-10T14:53:38.308Z,2.38
2023-05-10T14:56:05.271Z,1.98
2023-05-10T14:58:33.973Z,2.15
2023-05-10T15:01:01.864Z,1.88
2023-05-10T15:03:29.720Z,2.20
2023-05-10T15:05:58.719Z,2.60
2023-05-10T15:08:28.861Z,2.20
2023-05-10T15:10:56.967Z,2.33
2023-05-10T15:13:23.890Z,2.60
2023-05-10T15:15:50.973Z,2.40
2023-05-10T15:18:18.024Z,2.30
2023-05-10T15:20:44.890Z,2.08
2023-05-10T15:23:11.740Z,2.00
2023-05-10T15:25:38.622Z,2.50
2023-05-10T15:28:06.082Z,2.40
2023-05-10T15:30:32.983Z,2.33
2023-05-10T15:33:00.143Z,2.10
2023-05-10T15:35:28.059Z,2.35
2023-05-10T15:37:54.878Z,2.50
2023-05-10T15:40:21.947Z,2.88
2023-05-10T15:42:48.789Z,2.38
2023-05-10T15:45:16.592Z,2.50
2023-05-10T15:47:45.258Z,2.60
2023-05-10T15:50:12.948Z,2.50
2023-05-10T15:52:39.853Z,2.80
2023-05-10T15:55:13.091Z,3.88
2023-05-10T15:57:42.581Z,3.00
2023-05-10T16:00:11.760Z,3.53
2023-05-10T16:05:10.004Z,3.25
2023-05-10T16:07:36.942Z,3.47
2023-05-10T16:10:06.631Z,3.17
2023-05-10T16:12:33.649Z,3.28
2023-05-10T16:15:00.453Z,4.40
2023-05-10T16:17:27.397Z,2.67
2023-05-10T16:19:54.336Z,2.80
2023-05-10T16:22:22.484Z,2.80
2023-05-10T16:24:49.301Z,2.90
2023-05-10T16:27:16.425Z,2.78
2023-05-10T16:29:43.197Z,3.05
2023-05-10T16:32:10.019Z,4.55
2023-05-10T16:34:36.920Z,3.97
2023-05-10T16:37:04.091Z,4.30
2023-05-10T16:39:31.037Z,4.03
2023-05-10T16:41:57.806Z,4.05
2023-05-10T16:44:25.918Z,4.50
2023-05-10T16:46:53.305Z,3.63
2023-05-10T16:49:20.389Z,4.03
2023-05-10T16:51:47.146Z,3.85
2023-05-10T16:54:13.961Z,5.00
2023-05-10T16:56:40.947Z,4.70
2023-05-10T16:59:07.718Z,5.32
2023-05-10T17:01:34.754Z,9.23
2023-05-10T17:04:01.697Z,10.77
2023-05-10T17:06:28.619Z,3.53
2023-05-10T17:08:55.458Z,2.53
2023-05-10T17:11:22.392Z,2.58
2023-05-10T17:13:49.302Z,2.33
2023-05-10T17:16:16.232Z,2.65
2023-05-10T17:18:43.428Z,2.40
2023-05-10T17:21:10.296Z,2.13
2023-05-10T17:23:37.356Z,2.28
2023-05-10T17:26:05.486Z,2.30
2023-05-10T17:28:32.670Z,2.33
2023-05-10T17:31:00.114Z,3.72
2023-05-10T17:33:26.918Z,4.35
2023-05-10T17:35:53.962Z,2.50
2023-05-10T17:38:20.802Z,2.67
2023-05-10T17:40:47.609Z,2.45
2023-05-10T17:43:14.405Z,2.88
2023-05-10T17:45:41.247Z,2.85
2023-05-10T17:48:08.213Z,2.90
2023-05-10T17:50:35.491Z,2.67
2023-05-10T17:53:03.022Z,2.72
2023-05-10T17:55:30.873Z,2.20
2023-05-10T17:57:59.672Z,2.72
2023-05-10T18:00:26.786Z,2.92
2023-05-10T18:02:53.742Z,3.30
2023-05-10T18:05:21.032Z,2.67
2023-05-10T18:07:48.154Z,2.80
2023-05-10T18:10:15.001Z,2.63
2023-05-10T18:12:41.790Z,2.67
2023-05-10T18:15:09.161Z,2.92
2023-05-10T18:17:36.120Z,3.13
2023-05-10T18:20:03.380Z,3.00
2023-05-10T18:22:30.214Z,3.35
2023-05-10T18:24:56.973Z,3.17
2023-05-10T18:27:23.922Z,2.67
2023-05-10T18:29:50.723Z,3.08
2023-05-10T18:32:17.734Z,2.80
2023-05-10T18:34:44.544Z,3.05
2023-05-10T18:37:11.735Z,2.70
2023-05-10T18:39:38.562Z,3.10
2023-05-10T18:42:05.928Z,3.13
2023-05-10T18:44:32.833Z,3.60
2023-05-10T18:46:59.810Z,3.33
2023-05-10T18:49:27.626Z,4.25
2023-05-10T18:51:54.555Z,3.42
2023-05-10T18:54:21.502Z,2.72
2023-05-10T18:56:49.923Z,2.78
2023-05-10T18:59:16.840Z,2.92
2023-05-10T19:01:43.753Z,2.70
2023-05-10T19:04:10.820Z,2.60
2023-05-10T19:06:37.753Z,2.72
2023-05-10T19:09:04.727Z,2.65
2023-05-10T19:11:34.133Z,2.83
2023-05-10T19:14:01.869Z,3.10
2023-05-10T19:16:30.072Z,2.90
2023-05-10T19:18:57.208Z,2.95
2023-05-10T19:21:25.817Z,2.83
2023-05-10T19:23:53.613Z,2.80
2023-05-10T19:26:20.450Z,2.90
2023-05-10T19:28:47.398Z,4.03
2023-05-10T19:31:14.412Z,4.00
2023-05-10T19:33:41.325Z,3.10
2023-05-10T19:36:09.262Z,3.70
2023-05-10T19:38:37.549Z,3.20
2023-05-10T19:41:04.898Z,3.65
2023-05-10T19:43:34.562Z,3.35
2023-05-10T19:46:02.701Z,3.03
2023-05-10T19:48:30.672Z,3.22
2023-05-10T19:51:07.573Z,3.58
2023-05-10T19:53:36.227Z,2.75
2023-05-10T19:56:07.075Z,2.95
2023-05-10T19:58:34.433Z,2.80
2023-05-10T20:01:01.693Z,2.97
2023-05-10T20:03:29.144Z,2.80
2023-05-10T20:05:56.114Z,2.85
2023-05-10T20:08:23.034Z,2.80
2023-05-10T20:10:49.872Z,2.95
2023-05-10T20:13:16.712Z,2.70
2023-05-10T20:15:43.951Z,2.63
2023-05-10T20:18:10.821Z,2.58
2023-05-10T20:20:37.794Z,2.97
2023-05-10T20:23:04.711Z,2.72
2023-05-10T20:25:31.691Z,3.00
2023-05-10T20:27:58.464Z,3.00
2023-05-10T20:30:25.328Z,2.83
2023-05-10T20:32:52.272Z,3.00
2023-05-10T20:35:19.175Z,3.03
2023-05-10T20:37:48.371Z,2.92
2023-05-10T20:40:15.809Z,2.58
2023-05-10T20:42:42.772Z,2.67
2023-05-10T20:45:10.384Z,2.60
2023-05-10T20:47:37.278Z,2.90
2023-05-10T20:50:04.866Z,3.00
2023-05-10T20:52:31.768Z,2.90
2023-05-10T20:54:58.613Z,2.67
2023-05-10T20:57:25.625Z,2.40
2023-05-10T20:59:52.762Z,2.70
2023-05-10T21:02:20.053Z,2.90
2023-05-10T21:04:46.978Z,3.10
2023-05-10T21:07:13.830Z,2.78
2023-05-10T21:09:40.810Z,3.22
2023-05-10T21:12:09.123Z,2.78
2023-05-10T21:14:36.069Z,2.75
2023-05-10T21:17:02.902Z,2.90
2023-05-10T21:19:29.699Z,2.90
2023-05-10T21:21:57.691Z,2.92
2023-05-10T21:24:24.641Z,3.08
2023-05-10T21:26:51.580Z,2.90
2023-05-10T21:29:18.382Z,3.03
2023-05-10T21:31:45.212Z,2.80
2023-05-10T21:34:13.977Z,3.17
2023-05-10T21:36:41.018Z,3.20
2023-05-10T21:39:07.864Z,3.28
2023-05-10T21:41:34.786Z,3.20
2023-05-10T21:44:01.822Z,2.78
2023-05-10T21:46:28.686Z,3.10
2023-05-10T21:48:55.676Z,2.90
2023-05-10T21:51:22.587Z,2.83
2023-05-10T21:53:49.422Z,3.00
2023-05-10T21:56:16.262Z,2.60
2023-05-10T21:58:43.078Z,3.17
2023-05-10T22:01:09.950Z,2.83
2023-05-10T22:03:36.800Z,2.70
2023-05-10T22:06:03.856Z,2.90
2023-05-10T22:08:30.805Z,3.25
2023-05-10T22:10:57.695Z,2.95
2023-05-10T22:13:24.501Z,3.13
2023-05-10T22:15:51.872Z,2.95
2023-05-10T22:18:18.858Z,2.80
2023-05-10T22:20:46.651Z,3.03
2023-05-10T22:23:13.819Z,3.30
2023-05-10T22:25:40.767Z,3.50
2023-05-10T22:28:08.695Z,3.50
2023-05-10T22:30:35.565Z,3.28
2023-05-10T22:33:02.440Z,3.38
2023-05-10T22:35:29.292Z,3.65
2023-05-10T22:37:56.410Z,4.55
2023-05-10T22:40:23.289Z,4.43
2023-05-10T22:42:50.259Z,4.60
2023-05-10T22:45:17.393Z,4.47
2023-05-10T22:47:44.368Z,3.90
2023-05-10T22:50:11.956Z,4.30
2023-05-10T22:52:39.560Z,4.43
2023-05-10T22:55:07.273Z,4.32
2023-05-10T22:57:34.527Z,4.55
2023-05-10T23:00:02.143Z,4.65
2023-05-10T23:02:29.441Z,4.32
2023-05-10T23:04:56.485Z,4.47
2023-05-10T23:07:24.088Z,5.22
2023-05-10T23:09:50.996Z,5.05
2023-05-10T23:12:17.939Z,4.38
2023-05-10T23:14:46.644Z,4.05
2023-05-10T23:17:13.770Z,3.85
2023-05-10T23:19:40.641Z,3.63
2023-05-10T23:22:07.858Z,3.58
2023-05-10T23:24:34.861Z,3.33
2023-05-10T23:27:02.547Z,3.13
2023-05-10T23:29:29.650Z,3.13
2023-05-10T23:31:56.652Z,3.33
2023-05-10T23:34:23.552Z,3.83
2023-05-10T23:36:50.458Z,3.70
2023-05-10T23:39:17.488Z,3.72
2023-05-10T23:41:44.923Z,4.43
2023-05-10T23:44:11.742Z,3.92
2023-05-10T23:46:38.667Z,3.85
2023-05-10T23:49:05.473Z,3.33
2023-05-10T23:51:32.996Z,3.97
2023-05-10T23:54:00.281Z,3.58
2023-05-10T23:56:27.309Z,3.30
2023-05-10T23:58:54.062Z,3.05
